| time (UTC) | temp C | wind direction | speed KPH | gust KPH | rain 1hr cm | rain 24hr cm | rain mn cm | humidity % | barometer mb |
| 20260504141007 | 17 | 169 | 4.8 | 16.1 | 0.00 | 0.00 | 0.00 | 40 | 1014.1 |
| 20260504140508 | 17 | 246 | 8.0 | 16.1 | 0.00 | 0.00 | 0.00 | 39 | 1014.1 |
| 20260504130510 | 14 | 205 | 3.2 | 9.7 | 0.00 | 0.00 | 0.00 | 49 | 1014.6 |
| 20260504110508 | 8 | 221 | 0.0 | 0.0 | 0.00 | 0.00 | 0.00 | 68 | 1015.3 |
| 20260504100507 | 8 | 249 | 0.0 | 0.0 | 0.00 | 0.00 | 0.00 | 67 | 1015.0 |
| 20260504082008 | 8 | 293 | 0.0 | 0.0 | 0.00 | 0.00 | 0.00 | 69 | 1015.5 |
| 20260504081512 | 8 | 319 | 0.0 | 0.0 | 0.00 | 0.00 | 0.00 | 66 | 1015.4 |
| 20260504081005 | 8 | 360 | 0.0 | 0.0 | 0.00 | 0.00 | 0.00 | 68 | 1015.3 |
| 20260504080506 | 8 | 323 | 0.0 | 0.0 | 0.00 | 0.00 | 0.00 | 68 | 1015.4 |
| 20260504050507 | 5 | 360 | 0.0 | 1.6 | 0.00 | 0.00 | 0.00 | 77 | 1016.0 |
| 20260504050019 | 5 | 360 | 0.0 | 1.6 | 0.00 | 0.00 | 0.00 | 77 | 1016.0 |
| 20260504045507 | 5 | 360 | 0.0 | 0.0 | 0.00 | 0.00 | 0.00 | 75 | 1016.0 |
| 20260504045004 | 5 | 264 | 0.0 | 0.0 | 0.00 | 0.00 | 0.00 | 75 | 1016.0 |
| 20260504044522 | 5 | 264 | 0.0 | 0.0 | 0.00 | 0.00 | 0.00 | 74 | 1016.1 |
| 20260504044004 | 6 | 264 | 0.0 | 3.2 | 0.00 | 0.00 | 0.00 | 72 | 1016.1 |
| 20260504043508 | 6 | 220 | 0.0 | 3.2 | 0.00 | 0.00 | 0.00 | 72 | 1016.0 |
| 20260504043021 | 6 | 219 | 0.0 | 0.0 | 0.00 | 0.00 | 0.00 | 70 | 1015.9 |
| 20260504042509 | 6 | 219 | 0.0 | 0.0 | 0.00 | 0.00 | 0.00 | 69 | 1015.9 |
| 20260504042005 | 6 | 219 | 0.0 | 0.0 | 0.00 | 0.00 | 0.00 | 66 | 1015.9 |
| 20260504041515 | 7 | 219 | 0.0 | 0.0 | 0.00 | 0.00 | 0.00 | 63 | 1015.9 |
| 20260504041006 | 7 | 219 | 0.0 | 1.6 | 0.00 | 0.00 | 0.00 | 60 | 1015.9 |
| 20260504040507 | 7 | 219 | 0.0 | 1.6 | 0.00 | 0.00 | 0.00 | 59 | 1015.9 |
| 20260504040024 | 7 | 219 | 0.0 | 0.0 | 0.00 | 0.00 | 0.00 | 58 | 1015.8 |
| 20260504035510 | 8 | 219 | 0.0 | 0.0 | 0.00 | 0.00 | 0.00 | 56 | 1015.8 |
| 20260504035007 | 8 | 219 | 0.0 | 0.0 | 0.00 | 0.00 | 0.00 | 57 | 1015.9 |
| 20260504034529 | 8 | 220 | 0.0 | 0.0 | 0.00 | 0.00 | 0.00 | 57 | 1015.9 |
| 20260504034007 | 8 | 220 | 0.0 | 0.0 | 0.00 | 0.00 | 0.00 | 57 | 1015.9 |
| 20260504033507 | 8 | 220 | 0.0 | 1.6 | 0.00 | 0.00 | 0.00 | 55 | 1015.9 |
| 20260504033034 | 9 | 220 | 0.0 | 3.2 | 0.00 | 0.00 | 0.00 | 55 | 1015.9 |
| 20260504032509 | 9 | 220 | 0.0 | 3.2 | 0.00 | 0.00 | 0.00 | 56 | 1015.9 |
| 20260504032009 | 9 | 220 | 0.0 | 3.2 | 0.00 | 0.00 | 0.00 | 55 | 1015.8 |
| 20260504031527 | 9 | 233 | 1.6 | 8.0 | 0.00 | 0.00 | 0.00 | 55 | 1015.9 |
| 20260504031006 | 9 | 219 | 3.2 | 8.0 | 0.00 | 0.00 | 0.00 | 55 | 1015.8 |
| 20260504030507 | 8 | 224 | 3.2 | 6.4 | 0.00 | 0.00 | 0.00 | 60 | 1015.7 |
| 20260504030017 | 6 | 223 | 1.6 | 3.2 | 0.00 | 0.00 | 0.00 | 70 | 1015.7 |
| 20260504025507 | 6 | 263 | 0.0 | 0.0 | 0.00 | 0.00 | 0.00 | 74 | 1015.7 |
| 20260504025009 | 6 | 280 | 0.0 | 0.0 | 0.00 | 0.00 | 0.00 | 73 | 1015.7 |
| 20260504024539 | 6 | 280 | 0.0 | 0.0 | 0.00 | 0.00 | 0.00 | 73 | 1015.6 |
| 20260504024008 | 6 | 280 | 0.0 | 0.0 | 0.00 | 0.00 | 0.00 | 72 | 1015.4 |
| 20260504023508 | 6 | 280 | 0.0 | 0.0 | 0.00 | 0.00 | 0.00 | 72 | 1015.4 |
| 20260504023021 | 6 | 280 | 0.0 | 0.0 | 0.00 | 0.00 | 0.00 | 72 | 1015.4 |
| 20260504022508 | 6 | 280 | 0.0 | 0.0 | 0.00 | 0.00 | 0.00 | 71 | 1015.4 |
| 20260504022014 | 7 | 280 | 0.0 | 0.0 | 0.00 | 0.00 | 0.00 | 71 | 1015.4 |
| 20260504021521 | 7 | 280 | 0.0 | 0.0 | 0.00 | 0.00 | 0.00 | 70 | 1015.3 |
| 20260504021008 | 7 | 280 | 0.0 | 0.0 | 0.00 | 0.00 | 0.00 | 69 | 1015.4 |
| 20260504020509 | 7 | 281 | 0.0 | 0.0 | 0.00 | 0.00 | 0.00 | 69 | 1015.4 |
| 20260504020022 | 7 | 280 | 0.0 | 0.0 | 0.00 | 0.00 | 0.00 | 67 | 1015.3 |
| 20260504015507 | 7 | 280 | 0.0 | 0.0 | 0.00 | 0.00 | 0.00 | 67 | 1015.2 |
| 20260504015007 | 7 | 280 | 0.0 | 0.0 | 0.00 | 0.00 | 0.00 | 66 | 1015.1 |
| 20260504014517 | 8 | 281 | 0.0 | 0.0 | 0.00 | 0.00 | 0.00 | 65 | 1015.1 |
| 20260504014010 | 8 | 280 | 0.0 | 0.0 | 0.00 | 0.00 | 0.00 | 63 | 1015.1 |
| 20260504013506 | 8 | 280 | 0.0 | 0.0 | 0.00 | 0.00 | 0.00 | 63 | 1015.0 |
| 20260504013023 | 8 | 280 | 0.0 | 0.0 | 0.00 | 0.00 | 0.00 | 61 | 1015.0 |
| 20260504012507 | 8 | 280 | 0.0 | 0.0 | 0.00 | 0.00 | 0.00 | 60 | 1015.0 |
| 20260504012008 | 8 | 280 | 0.0 | 0.0 | 0.00 | 0.00 | 0.00 | 59 | 1014.9 |
| 20260504011523 | 9 | 280 | 0.0 | 0.0 | 0.00 | 0.00 | 0.00 | 58 | 1014.9 |
| 20260504011006 | 10 | 281 | 0.0 | 0.0 | 0.00 | 0.00 | 0.00 | 55 | 1014.9 |
| 20260504010510 | 10 | 281 | 0.0 | 0.0 | 0.00 | 0.00 | 0.00 | 55 | 1014.9 |
| 20260504010011 | 10 | 280 | 0.0 | 0.0 | 0.00 | 0.00 | 0.00 | 55 | 1015.0 |
| 20260504005504 | 10 | 280 | 0.0 | 0.0 | 0.00 | 0.00 | 0.00 | 54 | 1014.9 |
| 20260504005006 | 10 | 281 | 0.0 | 0.0 | 0.00 | 0.00 | 0.00 | 51 | 1014.9 |
| 20260504004532 | 11 | 281 | 0.0 | 0.0 | 0.00 | 0.00 | 0.00 | 49 | 1014.9 |
| 20260504004008 | 11 | 280 | 0.0 | 0.0 | 0.00 | 0.00 | 0.00 | 45 | 1014.8 |
| 20260504003507 | 11 | 280 | 0.0 | 0.0 | 0.00 | 0.00 | 0.00 | 48 | 1014.6 |
| 20260504003023 | 12 | 280 | 0.0 | 0.0 | 0.00 | 0.00 | 0.00 | 45 | 1014.6 |
| 20260504002509 | 13 | 280 | 0.0 | 0.0 | 0.00 | 0.00 | 0.00 | 41 | 1014.5 |
| 20260504002009 | 13 | 281 | 0.0 | 1.6 | 0.00 | 0.00 | 0.00 | 39 | 1014.5 |
| 20260504001504 | 13 | 280 | 0.0 | 3.2 | 0.00 | 0.00 | 0.00 | 37 | 1014.5 |
| 20260504001007 | 13 | 258 | 0.0 | 3.2 | 0.00 | 0.00 | 0.00 | 37 | 1014.6 |
| 20260504000502 | 13 | 302 | 0.0 | 3.2 | 0.00 | 0.00 | 0.00 | 38 | 1014.6 |
| 20260504000007 | 14 | 302 | 0.0 | 3.2 | 0.00 | 0.00 | 0.00 | 36 | 1014.5 |
| 20260503235504 | 15 | 302 | 0.0 | 6.4 | 0.00 | 0.00 | 0.00 | 33 | 1014.4 |
| 20260503235003 | 15 | 284 | 0.0 | 6.4 | 0.00 | 0.00 | 0.00 | 32 | 1014.4 |
| 20260503234512 | 15 | 286 | 0.0 | 9.7 | 0.00 | 0.00 | 0.00 | 31 | 1014.4 |
| 20260503234007 | 16 | 282 | 3.2 | 9.7 | 0.00 | 0.00 | 0.00 | 30 | 1014.3 |
| 20260503233505 | 16 | 294 | 3.2 | 9.7 | 0.00 | 0.00 | 0.00 | 30 | 1014.3 |
| 20260503233018 | 16 | 300 | 3.2 | 8.0 | 0.00 | 0.00 | 0.00 | 29 | 1014.3 |
| 20260503232511 | 16 | 315 | 4.8 | 14.5 | 0.00 | 0.00 | 0.00 | 29 | 1014.3 |
| 20260503232008 | 16 | 303 | 3.2 | 14.5 | 0.00 | 0.00 | 0.00 | 28 | 1014.2 |
| 20260503231523 | 16 | 290 | 3.2 | 16.1 | 0.00 | 0.00 | 0.00 | 29 | 1014.2 |
| 20260503231012 | 16 | 262 | 6.4 | 16.1 | 0.00 | 0.00 | 0.00 | 28 | 1014.1 |
| 20260503230511 | 16 | 307 | 6.4 | 16.1 | 0.00 | 0.00 | 0.00 | 29 | 1014.1 |
| 20260503230006 | 17 | 288 | 4.8 | 14.5 | 0.00 | 0.00 | 0.00 | 28 | 1014.1 |
| 20260503225503 | 17 | 305 | 8.0 | 14.5 | 0.00 | 0.00 | 0.00 | 28 | 1014.0 |
| 20260503225003 | 17 | 277 | 3.2 | 14.5 | 0.00 | 0.00 | 0.00 | 28 | 1014.1 |
| 20260503224509 | 17 | 254 | 6.4 | 14.5 | 0.00 | 0.00 | 0.00 | 27 | 1014.1 |
| 20260503224008 | 17 | 314 | 6.4 | 14.5 | 0.00 | 0.00 | 0.00 | 27 | 1014.1 |
| 20260503223504 | 17 | 269 | 3.2 | 17.7 | 0.00 | 0.00 | 0.00 | 27 | 1014.2 |
| 20260503223015 | 17 | 220 | 6.4 | 17.7 | 0.00 | 0.00 | 0.00 | 28 | 1014.1 |
| 20260503222509 | 17 | 267 | 4.8 | 19.3 | 0.00 | 0.00 | 0.00 | 27 | 1014.1 |
| 20260503222006 | 17 | 256 | 6.4 | 19.3 | 0.00 | 0.00 | 0.00 | 28 | 1014.2 |
| 20260503221521 | 17 | 230 | 9.7 | 19.3 | 0.00 | 0.00 | 0.00 | 27 | 1014.2 |
| 20260503221012 | 17 | 257 | 4.8 | 19.3 | 0.00 | 0.00 | 0.00 | 27 | 1014.2 |
| 20260503220508 | 17 | 263 | 11.3 | 19.3 | 0.00 | 0.00 | 0.00 | 26 | 1014.2 |
| 20260503220023 | 17 | 215 | 9.7 | 19.3 | 0.00 | 0.00 | 0.00 | 27 | 1014.3 |
| 20260503215512 | 17 | 329 | 8.0 | 22.5 | 0.00 | 0.00 | 0.00 | 26 | 1014.2 |
| 20260503215005 | 17 | 284 | 8.0 | 19.3 | 0.00 | 0.00 | 0.00 | 27 | 1014.2 |
| 20260503214506 | 17 | 347 | 8.0 | 17.7 | 0.00 | 0.00 | 0.00 | 27 | 1014.3 |
| 20260503214004 | 17 | 251 | 8.0 | 14.5 | 0.00 | 0.00 | 0.00 | 27 | 1014.3 |
| 20260503213503 | 17 | 285 | 3.2 | 14.5 | 0.00 | 0.00 | 0.00 | 27 | 1014.4 |
| 20260503213017 | 17 | 289 | 4.8 | 17.7 | 0.00 | 0.00 | 0.00 | 26 | 1014.4 |
| 20260503212506 | 17 | 284 | 8.0 | 17.7 | 0.00 | 0.00 | 0.00 | 27 | 1014.4 |
| 20260503212009 | 17 | 273 | 4.8 | 19.3 | 0.00 | 0.00 | 0.00 | 27 | 1014.4 |
| 20260503211522 | 17 | 279 | 8.0 | 19.3 | 0.00 | 0.00 | 0.00 | 27 | 1014.4 |
| 20260503211008 | 17 | 243 | 6.4 | 17.7 | 0.00 | 0.00 | 0.00 | 26 | 1014.4 |
| 20260503210506 | 17 | 266 | 6.4 | 12.9 | 0.00 | 0.00 | 0.00 | 26 | 1014.4 |
| 20260503210023 | 17 | 296 | 6.4 | 24.1 | 0.00 | 0.00 | 0.00 | 28 | 1014.4 |
| 20260503205509 | 17 | 312 | 4.8 | 24.1 | 0.00 | 0.00 | 0.00 | 28 | 1014.3 |
| 20260503205008 | 17 | 49 | 3.2 | 20.9 | 0.00 | 0.00 | 0.00 | 29 | 1014.3 |
| 20260503204528 | 16 | 248 | 4.8 | 22.5 | 0.00 | 0.00 | 0.00 | 26 | 1014.5 |
| 20260503204012 | 17 | 280 | 6.4 | 22.5 | 0.00 | 0.00 | 0.00 | 27 | 1014.6 |
| 20260503203506 | 17 | 304 | 9.7 | 22.5 | 0.00 | 0.00 | 0.00 | 27 | 1014.6 |
| 20260503203012 | 16 | 289 | 8.0 | 22.5 | 0.00 | 0.00 | 0.00 | 26 | 1014.6 |
| 20260503202507 | 16 | 278 | 9.7 | 24.1 | 0.00 | 0.00 | 0.00 | 27 | 1014.6 |
| 20260503202009 | 16 | 245 | 11.3 | 24.1 | 0.00 | 0.00 | 0.00 | 28 | 1014.6 |
| 20260503201516 | 16 | 253 | 8.0 | 16.1 | 0.00 | 0.00 | 0.00 | 28 | 1014.6 |
| 20260503201005 | 16 | 275 | 6.4 | 22.5 | 0.00 | 0.00 | 0.00 | 27 | 1014.8 |
| 20260503200508 | 16 | 267 | 4.8 | 22.5 | 0.00 | 0.00 | 0.00 | 27 | 1014.8 |
| 20260503200020 | 16 | 285 | 8.0 | 19.3 | 0.00 | 0.00 | 0.00 | 30 | 1015.0 |
| 20260503195509 | 16 | 301 | 11.3 | 22.5 | 0.00 | 0.00 | 0.00 | 28 | 1015.0 |
| 20260503195010 | 16 | 326 | 9.7 | 22.5 | 0.00 | 0.00 | 0.00 | 29 | 1015.0 |
| 20260503194524 | 15 | 300 | 12.9 | 22.5 | 0.00 | 0.00 | 0.00 | 30 | 1015.1 |
| 20260503194007 | 16 | 286 | 9.7 | 22.5 | 0.00 | 0.00 | 0.00 | 28 | 1015.3 |
| 20260503193511 | 16 | 290 | 9.7 | 24.1 | 0.00 | 0.00 | 0.00 | 29 | 1015.3 |
| 20260503193038 | 17 | 307 | 6.4 | 24.1 | 0.00 | 0.00 | 0.00 | 28 | 1015.3 |
| 20260503192511 | 16 | 337 | 11.3 | 24.1 | 0.00 | 0.00 | 0.00 | 28 | 1015.4 |
| 20260503192007 | 16 | 289 | 9.7 | 22.5 | 0.00 | 0.00 | 0.00 | 28 | 1015.4 |
| 20260503191515 | 15 | 330 | 6.4 | 20.9 | 0.00 | 0.00 | 0.00 | 30 | 1015.6 |
| 20260503191008 | 16 | 352 | 4.8 | 32.2 | 0.00 | 0.00 | 0.00 | 29 | 1015.7 |
| 20260503190508 | 16 | 268 | 9.7 | 32.2 | 0.00 | 0.00 | 0.00 | 32 | 1015.8 |
| 20260503190025 | 15 | 256 | 12.9 | 25.7 | 0.00 | 0.00 | 0.00 | 30 | 1015.8 |
| 20260503185508 | 15 | 294 | 12.9 | 25.7 | 0.00 | 0.00 | 0.00 | 31 | 1015.8 |
| 20260503185010 | 15 | 286 | 12.9 | 24.1 | 0.00 | 0.00 | 0.00 | 32 | 1015.9 |
| 20260503184524 | 15 | 276 | 6.4 | 14.5 | 0.00 | 0.00 | 0.00 | 31 | 1016.0 |
| 20260503184008 | 15 | 300 | 4.8 | 24.1 | 0.00 | 0.00 | 0.00 | 31 | 1016.0 |
| 20260503183508 | 15 | 289 | 6.4 | 29.0 | 0.00 | 0.00 | 0.00 | 31 | 1016.2 |
| 20260503183027 | 16 | 284 | 14.5 | 29.0 | 0.00 | 0.00 | 0.00 | 31 | 1016.2 |
| 20260503182514 | 15 | 257 | 12.9 | 27.4 | 0.00 | 0.00 | 0.00 | 31 | 1016.2 |
| 20260503182017 | 16 | 289 | 9.7 | 27.4 | 0.00 | 0.00 | 0.00 | 32 | 1016.2 |
| 20260503181526 | 15 | 284 | 11.3 | 20.9 | 0.00 | 0.00 | 0.00 | 32 | 1016.3 |
| 20260503181004 | 15 | 267 | 6.4 | 20.9 | 0.00 | 0.00 | 0.00 | 32 | 1016.3 |
| 20260503180508 | 15 | 272 | 8.0 | 29.0 | 0.00 | 0.00 | 0.00 | 33 | 1016.4 |
| 20260503180018 | 14 | 248 | 12.9 | 29.0 | 0.00 | 0.00 | 0.00 | 33 | 1016.5 |
| 20260503175507 | 15 | 64 | 9.7 | 22.5 | 0.00 | 0.00 | 0.00 | 33 | 1016.5 |
| 20260503175008 | 14 | 274 | 6.4 | 24.1 | 0.00 | 0.00 | 0.00 | 34 | 1016.5 |
| 20260503174527 | 14 | 292 | 11.3 | 24.1 | 0.00 | 0.00 | 0.00 | 34 | 1016.6 |
| 20260503174009 | 14 | 281 | 6.4 | 27.4 | 0.00 | 0.00 | 0.00 | 36 | 1016.7 |
| 20260503173027 | 13 | 315 | 8.0 | 22.5 | 0.00 | 0.00 | 0.00 | 35 | 1016.7 |
| 20260503172513 | 14 | 273 | 8.0 | 24.1 | 0.00 | 0.00 | 0.00 | 38 | 1016.7 |
| 20260503172011 | 13 | 299 | 8.0 | 32.2 | 0.00 | 0.00 | 0.00 | 35 | 1016.8 |
| 20260503171526 | 14 | 319 | 8.0 | 32.2 | 0.00 | 0.00 | 0.00 | 36 | 1016.7 |
| 20260503170510 | 12 | 210 | 8.0 | 20.9 | 0.00 | 0.00 | 0.00 | 36 | 1016.9 |